Vossem Meer informatie Vossem


Tervuren markt Meer informatie Tervuren markt


Tervuren park Meer informatie Tervuren park


Bezoek onze andere website:

Meteotemplate

Home Weather Station

Saratoga


Lokaal brand risico:
CBI


Regionaal brand risico: Meer informatie



METAR rapporten vliegvelden

   
EBBR - Brussels
Gewijzigd: Apr 1 2020 9:20 am
Helder  
Helder  
   Wind: Kalm
Wind: Kalm
Temperatuur: 2°C
Dauwpunt: -1°C
Vochtigheid: 81%
Barometer: 1024 mb
Zicht: meer dan 10 km
Bewolking: Helder
EBBR 010720Z 00000KT CAVOK 02/M01 Q1024 NOSIG
EBAW - Antwerp
Gewijzigd: Apr 1 2020 9:20 am
Helder  
Helder  
   Wind: NNO 7.4 km/h
Wind: NNO 7.4 km/h
Temperatuur: 3°C
Voelt als: 1°C
Dauwpunt: -3°C
Vochtigheid: 65%
Barometer: 1025 mb
Zicht: meer dan 10 km
Bewolking: Helder
EBAW 010720Z 02004KT 280V060 CAVOK 03/M03 Q1025 NOSIG
EHBK - Maastricht
Gewijzigd: Apr 1 2020 9:25 am
Helder  
Helder  
   Wind: varieert 1.9 km/h
Wind: varieert 1.9 km/h
Temperatuur: 2°C
Dauwpunt: -3°C
Vochtigheid: 70%
Barometer: 1023 mb
Bewolking: Helder
Zicht: meer dan 10 km
Bewolking: Helder
EHBK 010725Z AUTO VRB01KT 9999 NCD 02/M03 Q1023 NOSIG
EDLV - Nijmegen
Gewijzigd: Mar 29 2020 12:50 pm
Verouderd
Grotendeels bewolkt  
Grotendeels bewolkt  
   Wind: NNO 22.2 km/h
Wind: NNO 22.2 km/h
Temperatuur: 5°C
Voelt als: 1°C
Dauwpunt: -1°C
Vochtigheid: 66%
Barometer: 1029 mb
Bewolking: Grotendeels bewolkt
Zicht: meer dan 10 km
Bewolking: Grotendeels bewolkt 1097.3 m
EDLV 291050Z 03012KT 360V070 9999 BKN036 05/M01 Q1029
EHRD - Rotterdam
Gewijzigd: Apr 1 2020 9:25 am
Helder  
Helder  
   Wind: varieert 1.9 km/h
Wind: varieert 1.9 km/h
Temperatuur: 4°C
Dauwpunt: 0°C
Vochtigheid: 75%
Barometer: 1024 mb
Bewolking: Helder
Zicht: meer dan 10 km
Bewolking: Helder
EHRD 010725Z AUTO VRB01KT 9999 NCD 04/00 Q1024 NOSIG
 

Script ontwikkeld door  Saratoga-weather.org Aangepast voor de template door  Weerstation Leuven

U vindt ons ook hier:

Het Weer Aktueel

UK Metoffice

European Weather Network

WeatherCloud

Weather Underground

Benelux Weer Netwerk

AWEKAS

Citizen Weather Observer Program (CWOP)

Apparatuur in gebruik:

Weerstation
Davis VP2

Weerprogramma
Meteobridge

Weercomputer
TP-Link MR3020

Davis VP2

Meteobridge

TP-Link MR3020